AAL1386 KDCA-KBOS
Flight info
| Callsign | AAL1386 |
|---|---|
| Flight time | 1h 7m |
| Altitude | 35000 |
| Route | SOOKI6 SWANN BROSS Q419 JFK ROBUC3 |
| Aircraft | B738/M-SDE2E3FGHIRWXY/LB1 |
Departure
| Time | 2026-05-08 01:13 |
|---|---|
| Airport | Ronald Reagan Washington National Airport (KDCA) |
Arrival
| Time | 2026-05-08 02:21 |
|---|---|
| Airport | Boston Logan International Airport (KBOS) |
| Time | Latitude | Longitude | Altitude | Speed | Heading |
|---|---|---|---|---|---|
| 2026-05-08 00:43 | 38.85557 | -77.04218 | 27 ft | 0 kts | 338° |
| 2026-05-08 01:04 | 38.85556 | -77.04217 | 15 ft | 2 kts | 338° |
| 2026-05-08 01:04 | 38.85533 | -77.04206 | 27 ft | 2 kts | 337° |
| 2026-05-08 01:04 | 38.85516 | -77.04199 | 26 ft | 4 kts | 31° |
| 2026-05-08 01:05 | 38.85505 | -77.04219 | 27 ft | 2 kts | 72° |
| 2026-05-08 01:05 | 38.85512 | -77.04192 | 27 ft | 4 kts | 72° |
| 2026-05-08 01:05 | 38.85515 | -77.04179 | 26 ft | 0 kts | 72° |
| 2026-05-08 01:07 | 38.85516 | -77.04177 | 25 ft | 1 kts | 72° |
| 2026-05-08 01:07 | 38.85529 | -77.04122 | 25 ft | 12 kts | 72° |
| 2026-05-08 01:08 | 38.85597 | -77.04038 | 23 ft | 17 kts | 0° |
| 2026-05-08 01:08 | 38.85729 | -77.04050 | 27 ft | 16 kts | 353° |
| 2026-05-08 01:08 | 38.85737 | -77.04051 | 27 ft | 0 kts | 355° |
| 2026-05-08 01:10 | 38.85773 | -77.04055 | 27 ft | 11 kts | 355° |
| 2026-05-08 01:10 | 38.85878 | -77.04066 | 25 ft | 18 kts | 359° |
| 2026-05-08 01:10 | 38.85964 | -77.03975 | 27 ft | 15 kts | 30° |
| 2026-05-08 01:10 | 38.85996 | -77.03959 | 25 ft | 0 kts | 16° |
| 2026-05-08 01:11 | 38.86003 | -77.03956 | 25 ft | 5 kts | 17° |
| 2026-05-08 01:11 | 38.86062 | -77.03932 | 23 ft | 13 kts | 24° |
| 2026-05-08 01:11 | 38.86076 | -77.03870 | 22 ft | 8 kts | 172° |
| 2026-05-08 01:12 | 38.86072 | -77.03869 | 22 ft | 0 kts | 173° |
| 2026-05-08 01:12 | 38.86051 | -77.03866 | 23 ft | 19 kts | 174° |
| 2026-05-08 01:12 | 38.85666 | -77.03828 | 25 ft | 91 kts | 175° |
| 2026-05-08 01:13 | 38.84823 | -77.03740 | 30 ft | 150 kts | 174° |
| 2026-05-08 01:13 | 38.83705 | -77.03632 | 562 ft | 160 kts | 178° |
| 2026-05-08 01:13 | 38.82571 | -77.03456 | 1263 ft | 171 kts | 172° |
| 2026-05-08 01:13 | 38.81300 | -77.03158 | 1563 ft | 200 kts | 173° |
| 2026-05-08 01:14 | 38.79838 | -77.02839 | 1797 ft | 224 kts | 173° |
| 2026-05-08 01:14 | 38.78252 | -77.02493 | 2229 ft | 236 kts | 172° |
| 2026-05-08 01:14 | 38.76639 | -77.01921 | 2825 ft | 246 kts | 150° |
| 2026-05-08 01:14 | 38.75458 | -77.00362 | 3466 ft | 257 kts | 116° |
| 2026-05-08 01:15 | 38.75106 | -76.98084 | 4005 ft | 267 kts | 88° |
| 2026-05-08 01:15 | 38.75120 | -76.95673 | 4729 ft | 273 kts | 87° |
| 2026-05-08 01:15 | 38.75266 | -76.93237 | 5459 ft | 275 kts | 71° |
| 2026-05-08 01:15 | 38.76188 | -76.91136 | 6229 ft | 270 kts | 42° |
| 2026-05-08 01:16 | 38.77654 | -76.89674 | 6967 ft | 268 kts | 27° |
| 2026-05-08 01:16 | 38.79284 | -76.88437 | 7586 ft | 276 kts | 25° |
| 2026-05-08 01:16 | 38.80969 | -76.87173 | 8269 ft | 282 kts | 25° |
| 2026-05-08 01:16 | 38.82678 | -76.85871 | 8901 ft | 292 kts | 24° |
| 2026-05-08 01:17 | 38.83845 | -76.84973 | 9280 ft | 298 kts | 25° |
| 2026-05-08 01:17 | 38.85625 | -76.83593 | 10040 ft | 301 kts | 24° |
| 2026-05-08 01:17 | 38.87984 | -76.81443 | 10431 ft | 332 kts | 35° |
| 2026-05-08 01:17 | 38.89744 | -76.79382 | 10746 ft | 350 kts | 38° |
| 2026-05-08 01:18 | 38.90952 | -76.77914 | 11095 ft | 357 kts | 38° |
| 2026-05-08 01:18 | 38.92746 | -76.75738 | 11687 ft | 363 kts | 38° |
| 2026-05-08 01:18 | 38.94620 | -76.73502 | 12330 ft | 370 kts | 38° |
| 2026-05-08 01:18 | 38.96539 | -76.71250 | 12962 ft | 377 kts | 37° |
| 2026-05-08 01:19 | 38.98500 | -76.68971 | 13599 ft | 384 kts | 37° |
| 2026-05-08 01:19 | 39.00507 | -76.66645 | 14211 ft | 390 kts | 37° |
| 2026-05-08 01:19 | 39.02508 | -76.64245 | 14889 ft | 395 kts | 40° |
| 2026-05-08 01:19 | 39.04458 | -76.61738 | 15622 ft | 399 kts | 41° |
| 2026-05-08 01:20 | 39.06424 | -76.59178 | 16279 ft | 403 kts | 40° |
| 2026-05-08 01:20 | 39.08420 | -76.56605 | 16920 ft | 408 kts | 40° |
| 2026-05-08 01:20 | 39.10422 | -76.53975 | 17529 ft | 416 kts | 46° |
| 2026-05-08 01:20 | 39.11917 | -76.50725 | 18136 ft | 429 kts | 69° |
| 2026-05-08 01:21 | 39.12564 | -76.47015 | 18743 ft | 430 kts | 83° |
| 2026-05-08 01:21 | 39.12961 | -76.43181 | 19307 ft | 434 kts | 84° |
| 2026-05-08 01:21 | 39.13341 | -76.39288 | 19792 ft | 441 kts | 84° |
| 2026-05-08 01:21 | 39.13739 | -76.35341 | 20295 ft | 447 kts | 83° |
| 2026-05-08 01:22 | 39.14164 | -76.31354 | 20829 ft | 451 kts | 83° |
| 2026-05-08 01:22 | 39.14607 | -76.27327 | 21342 ft | 456 kts | 83° |
| 2026-05-08 01:22 | 39.15058 | -76.23264 | 21859 ft | 461 kts | 83° |
| 2026-05-08 01:22 | 39.15525 | -76.19142 | 22348 ft | 466 kts | 82° |
| 2026-05-08 01:23 | 39.16007 | -76.14994 | 22842 ft | 471 kts | 82° |
| 2026-05-08 01:23 | 39.16496 | -76.10804 | 23325 ft | 474 kts | 82° |
| 2026-05-08 01:23 | 39.16988 | -76.06574 | 23774 ft | 478 kts | 82° |
| 2026-05-08 01:23 | 39.17473 | -76.02371 | 24164 ft | 482 kts | 82° |
| 2026-05-08 01:24 | 39.17965 | -75.98080 | 24585 ft | 486 kts | 82° |
| 2026-05-08 01:24 | 39.18502 | -75.93752 | 24962 ft | 491 kts | 77° |
| 2026-05-08 01:24 | 39.19618 | -75.89577 | 25310 ft | 492 kts | 60° |
| 2026-05-08 01:24 | 39.21404 | -75.85842 | 25729 ft | 488 kts | 46° |
| 2026-05-08 01:25 | 39.23726 | -75.82715 | 26113 ft | 479 kts | 32° |
| 2026-05-08 01:25 | 39.26295 | -75.79967 | 26508 ft | 481 kts | 31° |
| 2026-05-08 01:25 | 39.28902 | -75.77230 | 26842 ft | 484 kts | 31° |
| 2026-05-08 01:25 | 39.31514 | -75.74461 | 27231 ft | 488 kts | 31° |
| 2026-05-08 01:26 | 39.34130 | -75.71637 | 27610 ft | 491 kts | 32° |
| 2026-05-08 01:26 | 39.36750 | -75.68767 | 28035 ft | 495 kts | 32° |
| 2026-05-08 01:26 | 39.39345 | -75.65904 | 28361 ft | 499 kts | 32° |
| 2026-05-08 01:26 | 39.41993 | -75.62981 | 28682 ft | 502 kts | 32° |
| 2026-05-08 01:27 | 39.44668 | -75.60030 | 29035 ft | 505 kts | 32° |
| 2026-05-08 01:27 | 39.47347 | -75.57083 | 29382 ft | 507 kts | 32° |
| 2026-05-08 01:27 | 39.50054 | -75.54112 | 29719 ft | 510 kts | 32° |
| 2026-05-08 01:27 | 39.52773 | -75.51124 | 30022 ft | 513 kts | 32° |
| 2026-05-08 01:28 | 39.55468 | -75.48155 | 30279 ft | 516 kts | 32° |
| 2026-05-08 01:28 | 39.58211 | -75.45130 | 30580 ft | 518 kts | 32° |
| 2026-05-08 01:28 | 39.60965 | -75.42088 | 30808 ft | 521 kts | 32° |
| 2026-05-08 01:28 | 39.63724 | -75.39037 | 31161 ft | 520 kts | 32° |
| 2026-05-08 01:29 | 39.66470 | -75.36000 | 31575 ft | 518 kts | 32° |
| 2026-05-08 01:29 | 39.69220 | -75.32957 | 31949 ft | 517 kts | 31° |
| 2026-05-08 01:29 | 39.71962 | -75.29922 | 32268 ft | 518 kts | 31° |
| 2026-05-08 01:29 | 39.74703 | -75.26886 | 32584 ft | 518 kts | 31° |
| 2026-05-08 01:30 | 39.77450 | -75.23838 | 32927 ft | 518 kts | 31° |
| 2026-05-08 01:30 | 39.80129 | -75.20686 | 33269 ft | 524 kts | 37° |
| 2026-05-08 01:30 | 39.82607 | -75.17152 | 33603 ft | 529 kts | 41° |
| 2026-05-08 01:30 | 39.84990 | -75.13495 | 33894 ft | 531 kts | 43° |
| 2026-05-08 01:31 | 39.87336 | -75.09840 | 34135 ft | 531 kts | 42° |
| 2026-05-08 01:31 | 39.89725 | -75.06163 | 34367 ft | 530 kts | 42° |
| 2026-05-08 01:31 | 39.92136 | -75.02521 | 34645 ft | 528 kts | 41° |
| 2026-05-08 01:31 | 39.94549 | -74.98913 | 34926 ft | 529 kts | 42° |
| 2026-05-08 01:32 | 39.96972 | -74.95260 | 34875 ft | 535 kts | 44° |
| 2026-05-08 01:32 | 40.01239 | -74.87337 | 34883 ft | 535 kts | 52° |
| 2026-05-08 01:33 | 40.05236 | -74.79167 | 34878 ft | 532 kts | 52° |
| 2026-05-08 01:33 | 40.09276 | -74.71079 | 34873 ft | 531 kts | 51° |
| 2026-05-08 01:34 | 40.13365 | -74.63027 | 34877 ft | 532 kts | 51° |
| 2026-05-08 01:34 | 40.17421 | -74.55018 | 34871 ft | 532 kts | 51° |
| 2026-05-08 01:35 | 40.21960 | -74.47476 | 34868 ft | 518 kts | 35° |
| 2026-05-08 01:35 | 40.27464 | -74.41561 | 34890 ft | 511 kts | 29° |
| 2026-05-08 01:36 | 40.31804 | -74.37075 | 34914 ft | 513 kts | 30° |
| 2026-05-08 01:36 | 40.35075 | -74.33635 | 34869 ft | 514 kts | 31° |
| 2026-05-08 01:37 | 40.40639 | -74.27681 | 34867 ft | 515 kts | 31° |
| 2026-05-08 01:37 | 40.46190 | -74.21706 | 34882 ft | 516 kts | 31° |
| 2026-05-08 01:38 | 40.51685 | -74.15673 | 34884 ft | 523 kts | 38° |
| 2026-05-08 01:38 | 40.54097 | -74.12011 | 34890 ft | 533 kts | 50° |
| 2026-05-08 01:38 | 40.56048 | -74.07835 | 34889 ft | 539 kts | 60° |
| 2026-05-08 01:38 | 40.57463 | -74.03255 | 34883 ft | 542 kts | 72° |
| 2026-05-08 01:39 | 40.58524 | -73.98484 | 34873 ft | 541 kts | 74° |
| 2026-05-08 01:39 | 40.60547 | -73.89003 | 34733 ft | 543 kts | 73° |
| 2026-05-08 01:39 | 40.61633 | -73.84227 | 34194 ft | 544 kts | 72° |
| 2026-05-08 01:40 | 40.62784 | -73.79484 | 33731 ft | 542 kts | 66° |
| 2026-05-08 01:40 | 40.64515 | -73.75141 | 33210 ft | 530 kts | 49° |
| 2026-05-08 01:40 | 40.66864 | -73.71486 | 32805 ft | 518 kts | 41° |
| 2026-05-08 01:40 | 40.69316 | -73.68027 | 32363 ft | 514 kts | 40° |
| 2026-05-08 01:41 | 40.71757 | -73.64611 | 31893 ft | 510 kts | 40° |
| 2026-05-08 01:41 | 40.74167 | -73.61190 | 31512 ft | 506 kts | 41° |
| 2026-05-08 01:41 | 40.76535 | -73.57768 | 31114 ft | 503 kts | 41° |
| 2026-05-08 01:41 | 40.78872 | -73.54346 | 30694 ft | 500 kts | 42° |
| 2026-05-08 01:42 | 40.81196 | -73.50924 | 30343 ft | 498 kts | 42° |
| 2026-05-08 01:42 | 40.83478 | -73.47563 | 29897 ft | 497 kts | 42° |
| 2026-05-08 01:42 | 40.85786 | -73.44164 | 29436 ft | 493 kts | 42° |
| 2026-05-08 01:42 | 40.88072 | -73.40793 | 28976 ft | 490 kts | 42° |
| 2026-05-08 01:43 | 40.90342 | -73.37440 | 28543 ft | 486 kts | 42° |
| 2026-05-08 01:43 | 40.92587 | -73.34122 | 28150 ft | 482 kts | 43° |
| 2026-05-08 01:43 | 40.94813 | -73.30827 | 27734 ft | 478 kts | 43° |
| 2026-05-08 01:43 | 40.96992 | -73.27599 | 27360 ft | 474 kts | 43° |
| 2026-05-08 01:44 | 40.99177 | -73.24358 | 26977 ft | 470 kts | 43° |
| 2026-05-08 01:44 | 41.01346 | -73.21140 | 26567 ft | 467 kts | 43° |
| 2026-05-08 01:44 | 41.03505 | -73.17933 | 26169 ft | 464 kts | 43° |
| 2026-05-08 01:44 | 41.05642 | -73.14755 | 25778 ft | 461 kts | 44° |
| 2026-05-08 01:45 | 41.07769 | -73.11588 | 25373 ft | 458 kts | 44° |
| 2026-05-08 01:45 | 41.09880 | -73.08441 | 24997 ft | 456 kts | 44° |
| 2026-05-08 01:45 | 41.11983 | -73.05303 | 24604 ft | 453 kts | 44° |
| 2026-05-08 01:45 | 41.14068 | -73.02188 | 24264 ft | 451 kts | 44° |
| 2026-05-08 01:46 | 41.16147 | -72.99080 | 23838 ft | 450 kts | 44° |
| 2026-05-08 01:46 | 41.18224 | -72.95972 | 23435 ft | 448 kts | 45° |
| 2026-05-08 01:46 | 41.20286 | -72.92882 | 22953 ft | 445 kts | 46° |
| 2026-05-08 01:46 | 41.22094 | -72.89572 | 22777 ft | 438 kts | 60° |
| 2026-05-08 01:47 | 41.23490 | -72.86037 | 22701 ft | 428 kts | 63° |
| 2026-05-08 01:47 | 41.24788 | -72.82510 | 22586 ft | 425 kts | 64° |
| 2026-05-08 01:47 | 41.26070 | -72.78979 | 22518 ft | 433 kts | 64° |
| 2026-05-08 01:48 | 41.28748 | -72.71729 | 22298 ft | 435 kts | 63° |
| 2026-05-08 01:48 | 41.30096 | -72.68149 | 22243 ft | 432 kts | 63° |
| 2026-05-08 01:48 | 41.31448 | -72.64583 | 22122 ft | 431 kts | 63° |
| 2026-05-08 01:48 | 41.32810 | -72.61003 | 22010 ft | 430 kts | 63° |
| 2026-05-08 01:49 | 41.34161 | -72.57449 | 21882 ft | 429 kts | 63° |
| 2026-05-08 01:49 | 41.35492 | -72.53947 | 21796 ft | 429 kts | 63° |
| 2026-05-08 01:49 | 41.36852 | -72.50360 | 21703 ft | 428 kts | 63° |
| 2026-05-08 01:49 | 41.38174 | -72.46869 | 21600 ft | 428 kts | 64° |
| 2026-05-08 01:50 | 41.39514 | -72.43324 | 21502 ft | 428 kts | 64° |
| 2026-05-08 01:50 | 41.40853 | -72.39776 | 21410 ft | 428 kts | 64° |
| 2026-05-08 01:50 | 41.42188 | -72.36235 | 21303 ft | 428 kts | 64° |
| 2026-05-08 01:50 | 41.43515 | -72.32712 | 21201 ft | 428 kts | 64° |
| 2026-05-08 01:51 | 41.44853 | -72.29154 | 21102 ft | 428 kts | 64° |
| 2026-05-08 01:51 | 41.46188 | -72.25603 | 20995 ft | 428 kts | 64° |
| 2026-05-08 01:51 | 41.47521 | -72.22051 | 20868 ft | 428 kts | 64° |
| 2026-05-08 01:51 | 41.48848 | -72.18489 | 20630 ft | 430 kts | 64° |
| 2026-05-08 01:52 | 41.50159 | -72.14913 | 20321 ft | 428 kts | 65° |
| 2026-05-08 01:52 | 41.51458 | -72.11349 | 20036 ft | 425 kts | 65° |
| 2026-05-08 01:52 | 41.52747 | -72.07811 | 19740 ft | 422 kts | 65° |
| 2026-05-08 01:52 | 41.54023 | -72.04311 | 19451 ft | 417 kts | 65° |
| 2026-05-08 01:53 | 41.55274 | -72.00883 | 19164 ft | 413 kts | 65° |
| 2026-05-08 01:53 | 41.56463 | -71.97400 | 18876 ft | 408 kts | 70° |
| 2026-05-08 01:53 | 41.57498 | -71.93884 | 18606 ft | 405 kts | 71° |
| 2026-05-08 01:53 | 41.58505 | -71.90391 | 18334 ft | 402 kts | 71° |
| 2026-05-08 01:54 | 41.59526 | -71.86914 | 18036 ft | 400 kts | 71° |
| 2026-05-08 01:54 | 41.60535 | -71.83500 | 17732 ft | 398 kts | 70° |
| 2026-05-08 01:54 | 41.61547 | -71.80075 | 17448 ft | 395 kts | 70° |
| 2026-05-08 01:54 | 41.62553 | -71.76671 | 17164 ft | 392 kts | 70° |
| 2026-05-08 01:55 | 41.63554 | -71.73276 | 16894 ft | 389 kts | 70° |
| 2026-05-08 01:55 | 41.64541 | -71.69924 | 16631 ft | 387 kts | 70° |
| 2026-05-08 01:55 | 41.65525 | -71.66582 | 16363 ft | 385 kts | 70° |
| 2026-05-08 01:55 | 41.66500 | -71.63264 | 16099 ft | 382 kts | 70° |
| 2026-05-08 01:56 | 41.67467 | -71.59966 | 15847 ft | 380 kts | 69° |
| 2026-05-08 01:56 | 41.68428 | -71.56686 | 15590 ft | 377 kts | 69° |
| 2026-05-08 01:56 | 41.69383 | -71.53423 | 15311 ft | 375 kts | 69° |
| 2026-05-08 01:56 | 41.70332 | -71.50175 | 15060 ft | 373 kts | 69° |
| 2026-05-08 01:57 | 41.71261 | -71.46993 | 14837 ft | 371 kts | 69° |
| 2026-05-08 01:57 | 41.72199 | -71.43779 | 14591 ft | 369 kts | 68° |
| 2026-05-08 01:57 | 41.73279 | -71.40683 | 14345 ft | 367 kts | 59° |
| 2026-05-08 01:57 | 41.74578 | -71.37747 | 14094 ft | 364 kts | 57° |
| 2026-05-08 01:58 | 41.75890 | -71.34859 | 13845 ft | 362 kts | 57° |
| 2026-05-08 01:58 | 41.77169 | -71.31956 | 13589 ft | 360 kts | 58° |
| 2026-05-08 01:58 | 41.78417 | -71.29055 | 13343 ft | 356 kts | 58° |
| 2026-05-08 01:58 | 41.79632 | -71.26204 | 13179 ft | 350 kts | 58° |
| 2026-05-08 01:59 | 41.80835 | -71.23375 | 12910 ft | 347 kts | 58° |
| 2026-05-08 01:59 | 41.82027 | -71.20571 | 12664 ft | 345 kts | 58° |
| 2026-05-08 01:59 | 41.83208 | -71.17791 | 12447 ft | 342 kts | 58° |
| 2026-05-08 01:59 | 41.84366 | -71.15067 | 12215 ft | 339 kts | 58° |
| 2026-05-08 02:00 | 41.85521 | -71.12345 | 11998 ft | 333 kts | 58° |
| 2026-05-08 02:00 | 41.86666 | -71.09675 | 11795 ft | 327 kts | 57° |
| 2026-05-08 02:00 | 41.87796 | -71.07062 | 11602 ft | 322 kts | 57° |
| 2026-05-08 02:00 | 41.88919 | -71.04470 | 11407 ft | 321 kts | 57° |
| 2026-05-08 02:01 | 41.90040 | -71.01882 | 11221 ft | 320 kts | 57° |
| 2026-05-08 02:01 | 41.91156 | -70.99298 | 11033 ft | 319 kts | 57° |
| 2026-05-08 02:01 | 41.92269 | -70.96719 | 10837 ft | 318 kts | 57° |
| 2026-05-08 02:01 | 41.93376 | -70.94149 | 10644 ft | 317 kts | 57° |
| 2026-05-08 02:02 | 41.94481 | -70.91580 | 10450 ft | 316 kts | 57° |
| 2026-05-08 02:02 | 41.95579 | -70.89026 | 10254 ft | 314 kts | 57° |
| 2026-05-08 02:02 | 41.96660 | -70.86508 | 10033 ft | 308 kts | 58° |
| 2026-05-08 02:02 | 41.97710 | -70.84060 | 9853 ft | 302 kts | 58° |
| 2026-05-08 02:03 | 41.98751 | -70.81631 | 9670 ft | 296 kts | 58° |
| 2026-05-08 02:03 | 41.99770 | -70.79253 | 9481 ft | 291 kts | 58° |
| 2026-05-08 02:03 | 42.00772 | -70.76914 | 9302 ft | 288 kts | 57° |
| 2026-05-08 02:03 | 42.01923 | -70.74729 | 9123 ft | 284 kts | 46° |
| 2026-05-08 02:04 | 42.03255 | -70.72782 | 8966 ft | 282 kts | 43° |
| 2026-05-08 02:04 | 42.04149 | -70.71515 | 8856 ft | 281 kts | 44° |
| 2026-05-08 02:04 | 42.05487 | -70.69593 | 8680 ft | 281 kts | 44° |
| 2026-05-08 02:04 | 42.06803 | -70.67658 | 8514 ft | 280 kts | 45° |
| 2026-05-08 02:05 | 42.08529 | -70.65085 | 8298 ft | 279 kts | 45° |
| 2026-05-08 02:05 | 42.09407 | -70.63771 | 8191 ft | 278 kts | 45° |
| 2026-05-08 02:05 | 42.10803 | -70.61996 | 7965 ft | 275 kts | 27° |
| 2026-05-08 02:05 | 42.12552 | -70.61175 | 7795 ft | 268 kts | 7° |
| 2026-05-08 02:06 | 42.14397 | -70.60757 | 7556 ft | 269 kts | 5° |
| 2026-05-08 02:06 | 42.16252 | -70.60388 | 7325 ft | 269 kts | 5° |
| 2026-05-08 02:06 | 42.18099 | -70.60021 | 7081 ft | 266 kts | 6° |
| 2026-05-08 02:06 | 42.19917 | -70.59652 | 6813 ft | 262 kts | 6° |
| 2026-05-08 02:07 | 42.21707 | -70.59282 | 6592 ft | 259 kts | 6° |
| 2026-05-08 02:07 | 42.23459 | -70.58915 | 6370 ft | 255 kts | 6° |
| 2026-05-08 02:07 | 42.25211 | -70.58545 | 6139 ft | 253 kts | 6° |
| 2026-05-08 02:07 | 42.26942 | -70.58178 | 5901 ft | 251 kts | 6° |
| 2026-05-08 02:08 | 42.28653 | -70.57813 | 5683 ft | 247 kts | 6° |
| 2026-05-08 02:08 | 42.30344 | -70.57451 | 5467 ft | 244 kts | 6° |
| 2026-05-08 02:08 | 42.31958 | -70.56819 | 5237 ft | 244 kts | 27° |
| 2026-05-08 02:08 | 42.33335 | -70.55503 | 5077 ft | 240 kts | 37° |
| 2026-05-08 02:09 | 42.34331 | -70.53733 | 4973 ft | 237 kts | 67° |
| 2026-05-08 02:09 | 42.34776 | -70.51590 | 4982 ft | 237 kts | 75° |
| 2026-05-08 02:09 | 42.35135 | -70.49416 | 4974 ft | 236 kts | 75° |
| 2026-05-08 02:09 | 42.35481 | -70.47271 | 4972 ft | 237 kts | 75° |
| 2026-05-08 02:10 | 42.35828 | -70.45096 | 4985 ft | 237 kts | 76° |
| 2026-05-08 02:10 | 42.36174 | -70.42917 | 4983 ft | 237 kts | 76° |
| 2026-05-08 02:10 | 42.36519 | -70.40733 | 4984 ft | 237 kts | 76° |
| 2026-05-08 02:10 | 42.37009 | -70.38614 | 4963 ft | 234 kts | 55° |
| 2026-05-08 02:11 | 42.38144 | -70.37147 | 4982 ft | 223 kts | 21° |
| 2026-05-08 02:11 | 42.39618 | -70.36780 | 4982 ft | 214 kts | 352° |
| 2026-05-08 02:11 | 42.41066 | -70.37157 | 4970 ft | 211 kts | 333° |
| 2026-05-08 02:11 | 42.42140 | -70.38397 | 4979 ft | 202 kts | 298° |
| 2026-05-08 02:12 | 42.42634 | -70.40155 | 4982 ft | 199 kts | 287° |
| 2026-05-08 02:12 | 42.43008 | -70.41935 | 4975 ft | 198 kts | 286° |
| 2026-05-08 02:12 | 42.43373 | -70.43732 | 4986 ft | 202 kts | 286° |
| 2026-05-08 02:12 | 42.43749 | -70.45600 | 4991 ft | 209 kts | 285° |
| 2026-05-08 02:13 | 42.44127 | -70.47516 | 4982 ft | 211 kts | 282° |
| 2026-05-08 02:13 | 42.44182 | -70.49494 | 4983 ft | 210 kts | 268° |
| 2026-05-08 02:13 | 42.44107 | -70.51465 | 4975 ft | 209 kts | 268° |
| 2026-05-08 02:13 | 42.43918 | -70.53394 | 4984 ft | 208 kts | 262° |
| 2026-05-08 02:14 | 42.43631 | -70.55342 | 4976 ft | 208 kts | 261° |
| 2026-05-08 02:14 | 42.43324 | -70.57247 | 4986 ft | 212 kts | 260° |
| 2026-05-08 02:14 | 42.42995 | -70.59213 | 5000 ft | 216 kts | 259° |
| 2026-05-08 02:14 | 42.42655 | -70.61193 | 4989 ft | 215 kts | 259° |
| 2026-05-08 02:15 | 42.42312 | -70.63162 | 4985 ft | 214 kts | 259° |
| 2026-05-08 02:15 | 42.41985 | -70.65138 | 4984 ft | 213 kts | 260° |
| 2026-05-08 02:15 | 42.41662 | -70.67099 | 4755 ft | 214 kts | 259° |
| 2026-05-08 02:15 | 42.41325 | -70.69031 | 4492 ft | 214 kts | 259° |
| 2026-05-08 02:16 | 42.40974 | -70.70995 | 4191 ft | 215 kts | 259° |
| 2026-05-08 02:16 | 42.40622 | -70.72955 | 3910 ft | 213 kts | 259° |
| 2026-05-08 02:16 | 42.40276 | -70.74881 | 3622 ft | 208 kts | 259° |
| 2026-05-08 02:16 | 42.39938 | -70.76764 | 3331 ft | 202 kts | 259° |
| 2026-05-08 02:17 | 42.39614 | -70.78572 | 3076 ft | 193 kts | 260° |
| 2026-05-08 02:17 | 42.39303 | -70.80310 | 2803 ft | 186 kts | 260° |
| 2026-05-08 02:17 | 42.39006 | -70.81978 | 2541 ft | 179 kts | 260° |
| 2026-05-08 02:17 | 42.38725 | -70.83549 | 2310 ft | 171 kts | 261° |
| 2026-05-08 02:18 | 42.38449 | -70.85098 | 2087 ft | 168 kts | 261° |
| 2026-05-08 02:18 | 42.38184 | -70.86589 | 1864 ft | 161 kts | 262° |
| 2026-05-08 02:18 | 42.37929 | -70.88016 | 1646 ft | 151 kts | 262° |
| 2026-05-08 02:18 | 42.37690 | -70.89360 | 1436 ft | 144 kts | 262° |
| 2026-05-08 02:19 | 42.37460 | -70.90659 | 1285 ft | 138 kts | 261° |
| 2026-05-08 02:19 | 42.37240 | -70.91897 | 1070 ft | 132 kts | 261° |
| 2026-05-08 02:19 | 42.37027 | -70.93103 | 891 ft | 132 kts | 260° |
| 2026-05-08 02:19 | 42.36808 | -70.94333 | 732 ft | 135 kts | 258° |
| 2026-05-08 02:20 | 42.36588 | -70.95571 | 519 ft | 134 kts | 259° |
| 2026-05-08 02:20 | 42.36373 | -70.96771 | 389 ft | 133 kts | 259° |
| 2026-05-08 02:20 | 42.36151 | -70.98011 | 199 ft | 138 kts | 259° |
| 2026-05-08 02:20 | 42.35935 | -70.99264 | 30 ft | 135 kts | 260° |
| 2026-05-08 02:21 | 42.35752 | -71.00314 | 25 ft | 86 kts | 255° |
| 2026-05-08 02:21 | 42.35664 | -71.00808 | 24 ft | 23 kts | 256° |
| 2026-05-08 02:21 | 42.35645 | -71.00920 | 27 ft | 16 kts | 257° |
| 2026-05-08 02:21 | 42.35648 | -71.01095 | 26 ft | 20 kts | 279° |
| 2026-05-08 02:22 | 42.35718 | -71.01255 | 27 ft | 20 kts | 306° |
| 2026-05-08 02:22 | 42.35772 | -71.01420 | 26 ft | 19 kts | 289° |
| 2026-05-08 02:22 | 42.35810 | -71.01564 | 26 ft | 13 kts | 289° |
| 2026-05-08 02:22 | 42.35831 | -71.01680 | 24 ft | 14 kts | 280° |
| 2026-05-08 02:23 | 42.35849 | -71.01809 | 29 ft | 14 kts | 283° |
| 2026-05-08 02:23 | 42.35886 | -71.01925 | 25 ft | 14 kts | 299° |
| 2026-05-08 02:23 | 42.35948 | -71.02034 | 24 ft | 15 kts | 341° |
| 2026-05-08 02:23 | 42.36037 | -71.02087 | 27 ft | 16 kts | 302° |
| 2026-05-08 02:24 | 42.36091 | -71.02210 | 26 ft | 15 kts | 301° |
| 2026-05-08 02:24 | 42.36172 | -71.02278 | 26 ft | 14 kts | 2° |
| 2026-05-08 02:24 | 42.36255 | -71.02220 | 27 ft | 13 kts | 54° |
| 2026-05-08 02:24 | 42.36240 | -71.02151 | 27 ft | 8 kts | 180° |
| 2026-05-08 02:25 | 42.36206 | -71.02143 | 28 ft | 1 kts | 136° |
| 2026-05-08 02:25 | 42.36205 | -71.02139 | 28 ft | 0 kts | 124° |
| 2026-05-08 02:25 | 42.36204 | -71.02138 | 28 ft | 0 kts | 125° |